Time;durP1;ratioP1;P1;durP2;ratioP2;P2;SDS_P1;SDS_P2;PMS_P1;PMS_P2;Temp;Humidity;BMP_temperature;BMP_pressure;BME280_temperature;BME280_humidity;BME280_pressure;Samples;Min_cycle;Max_cycle;Signal;HPM_P1;HPM_P2
2023/05/28 00:00:27;;;;;;;5.85;3.45;;;10.10;1.00;11.30;94334.00;;;;7399984;19;20596;-76
2023/05/28 00:02:56;;;;;;;7.57;3.83;;;10.20;1.00;11.20;94320.00;;;;7399810;19;20121;-76
2023/05/28 00:05:37;;;;;;;14.00;3.88;;;10.10;1.00;11.40;94320.00;;;;7396084;19;20173;-75
2023/05/28 00:08:04;;;;;;;8.68;3.67;;;10.10;1.00;11.20;94333.00;;;;7398288;19;20124;-76
2023/05/28 00:10:38;;;;;;;14.10;3.60;;;10.10;1.00;11.20;94330.00;;;;7396512;19;20588;-75
2023/05/28 00:13:05;;;;;;;9.65;3.80;;;10.10;1.00;11.20;94347.00;;;;7398750;19;20143;-74
2023/05/28 00:15:39;;;;;;;12.38;3.85;;;10.10;1.00;11.10;94330.00;;;;7398297;19;20475;-76
2023/05/28 00:18:08;;;;;;;8.80;3.65;;;10.00;1.00;11.00;94327.00;;;;7398243;19;20722;-76
2023/05/28 00:20:36;;;;;;;7.20;3.85;;;10.00;1.00;11.00;94320.00;;;;7396865;19;20457;-76
2023/05/28 00:23:10;;;;;;;11.23;3.90;;;9.90;1.00;11.30;94312.00;;;;7396178;19;20156;-76
2023/05/28 00:25:37;;;;;;;11.48;4.20;;;10.00;1.00;11.40;94318.00;;;;7398660;19;20577;-76
2023/05/28 00:28:11;;;;;;;12.48;4.90;;;10.10;1.00;11.50;94325.00;;;;7398389;19;20157;-76
2023/05/28 00:30:38;;;;;;;10.45;4.20;;;10.20;1.00;11.50;94284.00;;;;7397125;19;20136;-75
2023/05/28 00:33:12;;;;;;;13.35;3.80;;;10.30;1.00;11.60;94309.00;;;;7396165;19;20161;-76
2023/05/28 00:35:39;;;;;;;11.32;3.90;;;10.40;1.00;11.60;94314.00;;;;7398980;19;20138;-75
2023/05/28 00:38:13;;;;;;;7.47;3.78;;;10.40;1.00;11.40;94306.00;;;;7399838;19;20867;-76
2023/05/28 00:40:44;;;;;;;12.68;4.10;;;10.30;1.00;11.10;94311.00;;;;7397576;19;20184;-76
2023/05/28 00:43:12;;;;;;;11.55;4.30;;;10.10;1.00;11.00;94287.00;;;;7398318;19;20128;-75
2023/05/28 00:45:45;;;;;;;9.50;4.22;;;10.10;1.00;11.10;94308.00;;;;7396865;19;20588;-76
2023/05/28 00:48:19;;;;;;;9.48;4.10;;;10.00;1.00;10.90;94288.00;;;;7397364;19;20589;-76
2023/05/28 00:50:54;;;;;;;7.47;3.95;;;10.00;1.00;11.00;94296.00;;;;7398344;19;20150;-76
2023/05/28 00:53:28;;;;;;;8.82;4.00;;;10.00;1.00;10.90;94289.00;;;;7405472;19;20147;-75
2023/05/28 00:55:56;;;;;;;11.88;4.20;;;10.00;1.00;10.80;94304.00;;;;7404588;19;20620;-76
2023/05/28 00:58:30;;;;;;;8.32;4.20;;;9.90;1.00;10.80;94313.00;;;;7404700;19;20116;-76
2023/05/28 01:00:58;;;;;;;6.07;3.57;;;9.90;1.00;10.90;94304.00;;;;7407738;19;20173;-75
2023/05/28 01:03:39;;;;;;;10.63;3.78;;;9.90;1.00;10.80;94310.00;;;;7410201;19;20145;-75
2023/05/28 01:06:21;;;;;;;8.50;3.75;;;9.90;1.00;10.80;94317.00;;;;7413117;19;20137;-75
2023/05/28 01:08:56;;;;;;;7.75;3.85;;;9.90;1.00;10.80;94296.00;;;;7410125;19;20216;-77
2023/05/28 01:11:25;;;;;;;9.70;4.28;;;9.90;1.00;10.70;94296.00;;;;7411809;19;20151;-76
2023/05/28 01:13:59;;;;;;;7.03;3.53;;;9.80;1.00;10.60;94306.00;;;;7409931;19;20514;-75
2023/05/28 01:16:29;;;;;;;9.57;3.47;;;9.80;1.00;10.70;94303.00;;;;7413834;19;20120;-74
2023/05/28 01:19:08;;;;;;;8.40;3.88;;;9.80;1.00;10.70;94278.00;;;;7410927;19;20125;-73
2023/05/28 01:21:41;;;;;;;8.13;3.28;;;9.80;1.00;10.80;94299.00;;;;7410225;19;20155;-75
2023/05/28 01:24:16;;;;;;;8.18;3.70;;;9.80;1.00;10.80;94306.00;;;;7411438;19;20129;-74
2023/05/28 01:26:44;;;;;;;7.82;4.18;;;9.90;1.00;10.70;94279.00;;;;7412221;19;20129;-76
2023/05/28 01:29:18;;;;;;;8.30;3.83;;;9.80;1.00;10.50;94302.00;;;;7408819;19;20145;-76
2023/05/28 01:31:46;;;;;;;9.60;3.85;;;9.80;1.00;10.60;94298.00;;;;7411191;19;20136;-74
2023/05/28 01:34:19;;;;;;;14.95;4.03;;;9.80;1.00;10.60;94292.00;;;;7411177;19;20144;-75
2023/05/28 01:37:02;;;;;;;7.88;3.65;;;9.70;1.00;10.50;94260.00;;;;7410533;19;20137;-76
2023/05/28 01:39:43;;;;;;;7.38;3.58;;;9.70;1.00;10.60;94286.00;;;;7409964;19;20137;-75
2023/05/28 01:42:17;;;;;;;8.15;3.83;;;9.70;1.00;10.60;94285.00;;;;7410117;19;20121;-73
2023/05/28 01:44:46;;;;;;;7.30;3.58;;;9.60;1.00;10.60;94294.00;;;;7410921;19;20168;-74
2023/05/28 01:47:21;;;;;;;9.73;4.03;;;9.60;1.00;10.60;94281.00;;;;7410780;19;20153;-75
2023/05/28 01:49:48;;;;;;;10.25;4.18;;;9.60;1.00;10.50;94273.00;;;;7407569;19;20145;-74
2023/05/28 01:52:16;;;;;;;9.67;3.67;;;9.50;1.00;10.70;94275.00;;;;7408658;19;20146;-75
2023/05/28 01:54:50;;;;;;;8.73;3.70;;;9.50;1.00;10.60;94257.00;;;;7409588;19;20132;-73
2023/05/28 01:57:18;;;;;;;10.95;3.78;;;9.50;1.00;10.60;94236.00;;;;7409879;19;20493;-75
2023/05/28 01:59:52;;;;;;;8.27;3.80;;;9.50;1.00;10.60;94277.00;;;;7408335;19;20144;-75
2023/05/28 02:02:22;;;;;;;7.20;3.50;;;9.40;1.00;10.50;94277.00;;;;7404886;19;20171;-74
2023/05/28 02:05:05;;;;;;;9.73;4.03;;;9.40;1.00;10.50;94271.00;;;;7408311;19;20647;-75
2023/05/28 02:07:39;;;;;;;7.27;3.40;;;9.30;1.00;10.50;94251.00;;;;7407198;19;20610;-74
2023/05/28 02:10:13;;;;;;;9.67;3.80;;;9.30;1.00;10.50;94276.00;;;;7407114;19;20128;-75
2023/05/28 02:12:40;;;;;;;7.93;3.83;;;9.30;1.00;10.40;94265.00;;;;7408713;19;20156;-76
2023/05/28 02:15:10;;;;;;;10.17;3.93;;;9.30;1.00;10.30;94260.00;;;;7410905;19;20129;-75
2023/05/28 02:17:45;;;;;;;9.23;3.70;;;9.20;1.00;10.40;94265.00;;;;7409021;19;20129;-75
2023/05/28 02:20:19;;;;;;;7.57;4.22;;;9.20;1.00;10.30;94263.00;;;;7406914;19;20148;-76
2023/05/28 02:22:47;;;;;;;11.40;4.17;;;9.20;1.00;10.20;94255.00;;;;7408407;19;20140;-77
2023/05/28 02:25:20;;;;;;;11.70;4.20;;;9.20;1.00;10.20;94246.00;;;;7405569;19;20528;-75
2023/05/28 02:27:54;;;;;;;9.73;4.53;;;9.10;1.00;10.10;94249.00;;;;7408493;19;20186;-75
2023/05/28 02:30:28;;;;;;;10.43;4.10;;;9.10;1.00;10.20;94254.00;;;;7404278;19;20161;-76
2023/05/28 02:33:03;;;;;;;9.43;3.67;;;9.00;1.00;10.10;94239.00;;;;7408005;19;20146;-73
2023/05/28 02:35:37;;;;;;;9.90;3.63;;;9.00;1.00;10.10;94253.00;;;;7407379;19;20483;-76
2023/05/28 02:38:11;;;;;;;10.77;4.30;;;9.00;1.00;10.20;94245.00;;;;7408304;19;20146;-74
2023/05/28 02:40:45;;;;;;;7.80;3.80;;;9.10;1.00;10.10;94214.00;;;;7407758;19;20592;-74
2023/05/28 02:43:19;;;;;;;8.57;4.00;;;9.10;1.00;10.00;94248.00;;;;7408251;19;20133;-74
2023/05/28 02:45:53;;;;;;;8.77;4.47;;;9.00;1.00;10.00;94246.00;;;;7407031;19;20489;-76
2023/05/28 02:48:22;;;;;;;13.47;4.50;;;9.00;1.00;10.10;94250.00;;;;7405125;19;20604;-76
2023/05/28 02:50:55;;;;;;;7.40;3.73;;;9.00;1.00;10.10;94223.00;;;;7403706;19;20129;-75
2023/05/28 02:53:23;;;;;;;12.10;3.83;;;9.10;1.00;10.20;94243.00;;;;7407182;19;20140;-74
2023/05/28 02:55:57;;;;;;;8.63;3.80;;;9.10;1.00;10.10;94238.00;;;;7408251;19;20480;-76
2023/05/28 02:58:24;;;;;;;6.73;3.73;;;9.20;1.00;10.10;94216.00;;;;7407825;19;20608;-75
2023/05/28 03:00:58;;;;;;;8.87;4.17;;;9.10;1.00;9.90;94249.00;;;;7406733;19;20175;-77
2023/05/28 03:03:25;;;;;;;10.00;3.93;;;9.10;1.00;10.00;94256.00;;;;7408156;19;20129;-74
2023/05/28 03:06:07;;;;;;;6.07;3.47;;;9.10;1.00;10.00;94255.00;;;;7401580;19;20278;-75
2023/05/28 03:08:40;;;;;;;9.63;3.70;;;9.10;99.90;10.10;94253.00;;;;7406235;19;20136;-76
2023/05/28 03:11:14;;;;;;;11.50;4.47;;;9.10;99.90;10.00;94248.00;;;;7403077;19;20531;-75
2023/05/28 03:13:41;;;;;;;6.43;3.53;;;9.10;99.90;9.90;94241.00;;;;7397849;19;20518;-75
2023/05/28 03:16:16;;;;;;;6.00;3.90;;;9.10;99.90;9.80;94242.00;;;;7405257;19;20165;-76
2023/05/28 03:18:50;;;;;;;8.63;3.83;;;9.10;99.90;9.80;94244.00;;;;7406460;19;20128;-73
2023/05/28 03:21:24;;;;;;;9.63;3.63;;;9.00;99.90;9.70;94263.00;;;;7406222;19;20121;-76
2023/05/28 03:23:58;;;;;;;8.13;4.13;;;8.90;99.90;9.70;94254.00;;;;7405546;19;20180;-74
2023/05/28 03:26:32;;;;;;;10.97;3.90;;;8.80;99.90;9.70;94269.00;;;;7407235;19;20143;-73
2023/05/28 03:29:06;;;;;;;10.35;4.10;;;8.80;99.90;9.60;94243.00;;;;7408343;19;20145;-77
2023/05/28 03:31:46;;;;;;;11.50;4.10;;;8.80;99.90;9.60;94259.00;;;;7403494;19;20148;-75
2023/05/28 03:34:14;;;;;;;4.60;3.33;;;8.80;99.90;9.60;94248.00;;;;7407815;19;20140;-73
2023/05/28 03:36:48;;;;;;;10.17;4.07;;;8.80;99.90;9.70;94234.00;;;;7405647;19;20148;-74
2023/05/28 03:39:16;;;;;;;9.73;3.50;;;8.80;99.90;9.80;94259.00;;;;7405476;19;20485;-76
2023/05/28 03:41:45;;;;;;;7.83;4.10;;;8.80;99.90;10.00;94240.00;;;;7404564;19;20121;-77
2023/05/28 03:44:19;;;;;;;10.43;3.90;;;8.90;99.90;10.10;94238.00;;;;7405715;19;20143;-77
2023/05/28 03:46:46;;;;;;;8.10;4.00;;;9.00;99.90;10.00;94245.00;;;;7406031;19;20176;-76
2023/05/28 03:49:21;;;;;;;11.23;3.77;;;9.10;99.90;10.00;94253.00;;;;7407528;19;20156;-74
2023/05/28 03:51:48;;;;;;;10.97;4.07;;;9.00;99.90;9.90;94240.00;;;;7403371;19;20611;-76
2023/05/28 03:54:23;;;;;;;8.07;3.60;;;9.10;99.90;10.00;94245.00;;;;7405591;19;20129;-74
2023/05/28 03:56:50;;;;;;;7.50;3.57;;;9.10;99.90;10.00;94252.00;;;;7404159;19;20136;-75
2023/05/28 03:59:25;;;;;;;7.07;3.87;;;9.10;99.90;10.00;94251.00;;;;7404797;19;20133;-76
2023/05/28 04:01:52;;;;;;;5.33;3.40;;;9.20;99.90;10.00;94230.00;;;;7404673;19;20144;-75
2023/05/28 04:04:39;;;;;;;6.57;3.30;;;9.10;99.90;10.10;94247.00;;;;7404703;19;20154;-76
2023/05/28 04:07:13;;;;;;;9.13;3.80;;;9.20;99.90;10.10;94251.00;;;;7406841;19;20129;-76
2023/05/28 04:09:47;;;;;;;9.10;3.60;;;9.20;99.90;10.20;94233.00;;;;7403359;19;20240;-74
2023/05/28 04:12:14;;;;;;;7.53;3.72;;;9.20;99.90;10.20;94254.00;;;;7403572;19;20165;-74
2023/05/28 04:14:48;;;;;;;11.77;3.58;;;9.20;99.90;10.30;94258.00;;;;7405531;19;20264;-75
2023/05/28 04:17:22;;;;;;;7.47;3.55;;;9.20;99.90;10.40;94256.00;;;;7404097;19;20162;-76
2023/05/28 04:19:51;;;;;;;11.73;3.83;;;9.30;99.90;10.30;94237.00;;;;7407262;19;20137;-75
2023/05/28 04:22:24;;;;;;;9.05;3.58;;;9.30;99.90;10.40;94261.00;;;;7405032;19;20584;-74
2023/05/28 04:24:55;;;;;;;8.93;3.60;;;9.40;99.90;10.80;94219.00;;;;7404599;19;20136;-77
2023/05/28 04:27:30;;;;;;;13.07;3.70;;;9.40;99.90;10.80;94259.00;;;;7403198;19;20678;-74
2023/05/28 04:29:57;;;;;;;7.95;3.50;;;9.60;99.90;10.90;94246.00;;;;7405568;19;20149;-73
2023/05/28 04:32:32;;;;;;;9.57;3.72;;;9.60;99.90;10.90;94256.00;;;;7405639;19;20601;-76
2023/05/28 04:35:10;;;;;;;6.70;3.78;;;9.70;99.90;10.90;94266.00;;;;7405596;19;20132;-75
2023/05/28 04:37:44;;;;;;;7.82;3.90;;;9.80;99.90;10.90;94254.00;;;;7403748;19;20588;-74
2023/05/28 04:40:18;;;;;;;8.27;3.83;;;9.80;99.90;11.00;94237.00;;;;7404088;19;20141;-76
2023/05/28 04:42:47;;;;;;;7.05;3.38;;;9.90;99.90;11.20;94262.00;;;;7406420;19;20597;-76
2023/05/28 04:45:21;;;;;;;9.05;3.53;;;9.90;99.90;11.20;94265.00;;;;7405565;19;20148;-77
2023/05/28 04:47:50;;;;;;;8.20;3.55;;;10.00;99.90;11.30;94264.00;;;;7405586;19;20168;-75
2023/05/28 04:50:24;;;;;;;7.50;3.25;;;10.10;99.90;11.40;94264.00;;;;7402594;19;20154;-77
2023/05/28 04:52:51;;;;;;;11.75;3.83;;;10.20;99.90;11.60;94264.00;;;;7405368;19;20133;-75
2023/05/28 04:55:25;;;;;;;7.00;3.80;;;10.40;99.90;11.80;94249.00;;;;7403893;19;20189;-74
2023/05/28 04:57:53;;;;;;;5.68;3.30;;;10.50;99.90;11.90;94256.00;;;;7404450;19;20129;-75
2023/05/28 05:00:27;;;;;;;6.57;3.92;;;10.70;99.90;12.10;94269.00;;;;7404435;19;20201;-74
2023/05/28 05:03:01;;;;;;;12.02;3.42;;;10.90;99.90;12.30;94270.00;;;;7405066;19;20149;-74
2023/05/28 05:05:42;;;;;;;11.60;4.18;;;11.00;99.90;12.40;94258.00;;;;7403020;19;20154;-74
2023/05/28 05:08:13;;;;;;;10.20;3.83;;;11.10;99.90;12.60;94257.00;;;;7406653;19;20124;-75
2023/05/28 05:10:47;;;;;;;6.25;3.42;;;11.20;99.90;12.80;94235.00;;;;7404134;19;20655;-75
2023/05/28 05:13:21;;;;;;;7.40;3.42;;;11.40;99.90;13.00;94267.00;;;;7405067;19;20599;-74
2023/05/28 05:15:55;;;;;;;6.70;3.10;;;11.50;99.90;13.20;94241.00;;;;7407020;19;20486;-76
2023/05/28 05:18:23;;;;;;;9.38;3.63;;;11.70;99.90;13.40;94252.00;;;;7404975;19;20152;-75
2023/05/28 05:20:57;;;;;;;6.03;3.63;;;11.90;99.90;13.50;94258.00;;;;7405789;19;20175;-74
2023/05/28 05:23:31;;;;;;;9.85;4.20;;;12.10;99.90;13.60;94237.00;;;;7406034;19;20152;-74
2023/05/28 05:26:16;;;;;;;6.43;3.55;;;12.20;99.90;13.70;94235.00;;;;7405992;19;20144;-74
2023/05/28 05:28:50;;;;;;;8.75;3.70;;;12.40;99.90;13.90;94239.00;;;;7404874;19;20133;-74
2023/05/28 05:31:25;;;;;;;11.00;3.75;;;12.60;99.90;14.10;94256.00;;;;7405485;19;20165;-74
2023/05/28 05:33:59;;;;;;;8.98;4.20;;;12.80;99.90;14.30;94231.00;;;;7404240;19;20141;-75
2023/05/28 05:36:33;;;;;;;8.73;3.83;;;12.90;1.00;14.40;94255.00;;;;7406397;19;20145;-73
2023/05/28 05:39:00;;;;;;;6.32;3.70;;;13.00;1.00;14.50;94242.00;;;;7413834;19;20158;-73
2023/05/28 05:41:34;;;;;;;8.18;3.88;;;13.20;1.00;14.70;94229.00;;;;7411251;19;20145;-74
2023/05/28 05:44:02;;;;;;;6.47;2.90;;;13.40;1.00;14.80;94239.00;;;;7412029;19;20158;-74
2023/05/28 05:46:35;;;;;;;9.27;3.88;;;13.50;1.00;15.10;94245.00;;;;7413006;19;20505;-74
2023/05/28 05:49:03;;;;;;;8.70;3.70;;;13.60;1.00;15.20;94248.00;;;;7410522;19;20157;-74
2023/05/28 05:51:36;;;;;;;5.32;3.25;;;13.90;1.00;15.50;94245.00;;;;7409456;19;20604;-75
2023/05/28 05:54:04;;;;;;;9.60;3.45;;;14.00;1.00;15.60;94239.00;;;;7411532;19;20149;-75
2023/05/28 05:56:37;;;;;;;7.35;3.88;;;14.20;1.00;15.90;94252.00;;;;7412160;19;20160;-75
2023/05/28 05:59:04;;;;;;;7.32;3.38;;;14.40;1.00;16.20;94237.00;;;;7412946;19;20148;-73
2023/05/28 06:01:38;;;;;;;7.57;3.70;;;14.70;99.90;16.60;94251.00;;;;7412233;19;20145;-77
2023/05/28 06:04:12;;;;;;;7.50;3.75;;;14.90;99.90;16.70;94226.00;;;;7414410;19;20474;-73
2023/05/28 06:06:53;;;;;;;12.75;3.83;;;15.20;1.00;16.90;94228.00;;;;7411256;19;20160;-76
2023/05/28 06:09:20;;;;;;;9.00;3.63;;;15.50;1.00;17.30;94242.00;;;;7410562;19;20149;-74
2023/05/28 06:11:56;;;;;;;9.75;3.70;;;15.90;1.00;17.30;94255.00;;;;7414881;19;20478;-75
2023/05/28 06:14:23;;;;;;;7.80;4.07;;;16.20;1.00;17.30;94252.00;;;;7417520;19;20149;-74
2023/05/28 06:16:57;;;;;;;7.03;4.10;;;;;17.60;94251.00;;;;7416620;19;20132;-74
2023/05/28 06:19:33;;;;;;;8.82;3.60;;;16.70;99.90;18.10;94230.00;;;;7416463;19;20150;-75
2023/05/28 06:22:01;;;;;;;6.85;3.45;;;16.80;1.00;18.20;94233.00;;;;7416000;19;20125;-74
2023/05/28 06:24:38;;;;;;;7.18;4.40;;;17.00;1.00;18.40;94251.00;;;;7415519;19;20143;-74
2023/05/28 06:27:12;;;;;;;8.50;3.58;;;17.30;1.00;18.80;94257.00;;;;7412628;19;20517;-74
2023/05/28 06:29:40;;;;;;;10.05;4.75;;;17.50;1.00;19.10;94250.00;;;;7413004;19;20143;-76
2023/05/28 06:32:14;;;;;;;8.48;4.50;;;17.60;61.30;19.40;94237.00;;;;7410651;19;20615;-75
2023/05/28 06:34:48;;;;;;;6.97;3.60;;;17.80;99.90;19.60;94254.00;;;;7411736;19;20133;-74
2023/05/28 06:37:29;;;;;;;6.03;3.50;;;18.00;99.90;19.70;94245.00;;;;7409397;19;20133;-76
2023/05/28 06:39:57;;;;;;;7.38;3.75;;;;;20.00;94254.00;;;;7409287;19;20129;-74
2023/05/28 06:42:32;;;;;;;8.73;4.00;;;;;20.20;94247.00;;;;7398228;19;21549;-69
2023/05/28 06:45:01;;;;;;;10.77;3.92;;;;;20.00;94258.00;;;;7383719;19;20129;-70
2023/05/28 06:47:34;;;;;;;6.80;3.60;;;18.50;99.90;19.80;94256.00;;;;7379236;19;20556;-70
2023/05/28 06:50:02;;;;;;;5.82;3.63;;;18.70;99.90;19.80;94262.00;;;;7386223;19;20530;-70
2023/05/28 06:52:36;;;;;;;7.13;3.53;;;18.50;99.90;19.70;94248.00;;;;7384922;19;20149;-70
2023/05/28 06:55:05;;;;;;;7.00;3.20;;;18.50;99.90;19.80;94259.00;;;;7384050;19;20208;-70
2023/05/28 06:57:38;;;;;;;7.97;3.90;;;18.40;49.90;19.80;94253.00;;;;7384311;19;20129;-69
2023/05/28 07:00:14;;;;;;;8.32;3.42;;;18.40;1.00;20.00;94268.00;;;;7384792;19;20160;-69
2023/05/28 07:02:47;;;;;;;10.82;3.53;;;18.40;5.90;19.80;94268.00;;;;7384406;19;20161;-70
2023/05/28 07:05:36;;;;;;;8.20;3.92;;;18.30;8.70;19.90;94257.00;;;;7382424;19;20272;-70
2023/05/28 07:08:10;;;;;;;6.57;3.67;;;18.30;5.70;19.50;94278.00;;;;7385631;19;20478;-71
2023/05/28 07:10:37;;;;;;;6.43;3.38;;;18.30;1.00;19.60;94277.00;;;;7385803;19;20129;-70
2023/05/28 07:13:12;;;;;;;6.90;3.65;;;18.40;5.00;20.00;94258.00;;;;7383585;19;20200;-70
2023/05/28 07:15:39;;;;;;;7.22;3.47;;;18.40;4.40;19.70;94281.00;;;;7382145;19;20129;-70
2023/05/28 07:18:13;;;;;;;8.52;3.72;;;18.50;1.00;19.70;94272.00;;;;7383015;19;20165;-70
2023/05/28 07:20:47;;;;;;;8.32;3.70;;;18.50;7.80;19.80;94266.00;;;;7379137;19;20615;-70
2023/05/28 07:23:21;;;;;;;12.20;3.55;;;18.60;99.90;20.00;94268.00;;;;7384144;19;20153;-71
2023/05/28 07:25:49;;;;;;;7.40;3.80;;;18.50;1.00;20.00;94273.00;;;;7381129;19;20125;-70
2023/05/28 07:28:23;;;;;;;7.15;3.70;;;18.60;1.00;20.80;94270.00;;;;7384114;19;20128;-70
2023/05/28 07:30:51;;;;;;;10.10;4.10;;;18.70;1.00;20.80;94270.00;;;;7382600;19;20149;-70
2023/05/28 07:33:24;;;;;;;8.75;4.18;;;18.50;1.00;20.80;94292.00;;;;7382298;19;20153;-70
2023/05/28 07:35:51;;;;;;;5.50;3.60;;;18.50;1.00;20.90;94294.00;;;;7384224;19;20159;-70
2023/05/28 07:38:25;;;;;;;8.32;4.00;;;18.60;1.00;20.90;94281.00;;;;7382488;19;20148;-70
2023/05/28 07:40:59;;;;;;;6.50;3.70;;;18.70;1.00;20.90;94270.00;;;;7383162;19;20136;-70
2023/05/28 07:43:33;;;;;;;7.95;3.67;;;18.80;1.00;20.60;94278.00;;;;7384524;19;20157;-70
2023/05/28 07:46:00;;;;;;;8.40;3.85;;;19.00;1.00;20.50;94280.00;;;;7383004;19;20458;-72
2023/05/28 07:48:27;;;;;;;8.25;3.45;;;18.80;1.00;20.10;94293.00;;;;7385624;19;20133;-70
2023/05/28 07:51:01;;;;;;;8.00;3.78;;;18.60;1.00;20.30;94282.00;;;;7380400;19;20186;-69
2023/05/28 07:53:28;;;;;;;8.15;3.88;;;18.70;1.00;20.70;94272.00;;;;7382966;19;20151;-71
2023/05/28 07:56:02;;;;;;;6.97;3.50;;;19.00;1.00;20.60;94238.00;;;;7382815;19;20129;-74
2023/05/28 07:58:30;;;;;;;9.00;3.72;;;18.90;1.00;20.50;94271.00;;;;7382230;19;21607;-71
2023/05/28 08:01:08;;;;;;;7.15;3.72;;;19.00;1.00;20.80;94279.00;;;;7382973;19;20521;-69
2023/05/28 08:03:36;;;;;;;9.10;3.92;;;19.30;1.00;21.00;94284.00;;;;7377547;19;20149;-69
2023/05/28 08:06:24;;;;;;;5.18;3.30;;;19.50;1.00;21.00;94276.00;;;;7381591;19;20148;-70
2023/05/28 08:08:51;;;;;;;7.55;3.65;;;19.80;1.00;21.30;94273.00;;;;7384247;19;20132;-71
2023/05/28 08:11:26;;;;;;;7.75;3.95;;;;;21.80;94281.00;;;;7384360;19;20478;-69
2023/05/28 08:14:00;;;;;;;8.20;3.60;;;19.90;99.90;22.20;94272.00;;;;7378767;19;20156;-71
2023/05/28 08:16:34;;;;;;;9.13;4.35;;;19.80;99.90;22.00;94280.00;;;;7383639;19;20133;-70
2023/05/28 08:19:01;;;;;;;9.20;3.97;;;19.80;99.90;22.20;94275.00;;;;7382434;19;20173;-71
2023/05/28 08:21:35;;;;;;;11.18;4.38;;;20.00;99.90;22.60;94286.00;;;;7381848;19;20152;-70
2023/05/28 08:24:06;;;;;;;7.97;3.45;;;20.20;70.50;22.90;94278.00;;;;7381743;19;20140;-71
2023/05/28 08:26:39;;;;;;;7.82;3.92;;;20.30;99.90;22.90;94262.00;;;;7379572;19;20152;-71
2023/05/28 08:29:06;;;;;;;8.57;3.90;;;20.50;99.90;23.00;94268.00;;;;7383888;19;20630;-72
2023/05/28 08:31:40;;;;;;;5.85;3.83;;;20.50;99.90;22.40;94279.00;;;;7380804;19;20620;-70
2023/05/28 08:34:07;;;;;;;8.50;4.15;;;20.20;99.90;22.80;94261.00;;;;7382283;19;20191;-72
2023/05/28 08:36:41;;;;;;;7.82;3.85;;;20.50;99.90;22.80;94260.00;;;;7382198;19;20449;-71
2023/05/28 08:39:17;;;;;;;10.43;4.32;;;;;22.80;94271.00;;;;7379323;19;20145;-72
2023/05/28 08:41:51;;;;;;;10.02;4.07;;;20.80;99.90;22.70;94266.00;;;;7383451;19;20540;-70
2023/05/28 08:44:25;;;;;;;8.10;3.72;;;21.10;99.90;23.10;94266.00;;;;7381875;19;20775;-72
2023/05/28 08:46:55;;;;;;;8.20;4.00;;;21.40;99.90;23.60;94260.00;;;;7378322;19;20164;-72
2023/05/28 08:49:34;;;;;;;10.15;4.20;;;;;23.70;94263.00;;;;7382973;19;20495;-74
2023/05/28 08:52:12;;;;;;;8.75;3.80;;;21.30;99.90;23.30;94256.00;;;;7381525;19;20136;-72
2023/05/28 08:54:51;;;;;;;8.55;4.35;;;;;23.20;94263.00;;;;7382533;19;20464;-71
2023/05/28 08:57:30;;;;;;;8.02;4.00;;;;;23.40;94253.00;;;;7380393;19;20196;-70
2023/05/28 09:00:08;;;;;;;11.20;4.13;;;;;24.10;94252.00;;;;7382449;19;20129;-72
2023/05/28 09:02:44;;;;;;;8.85;4.32;;;;;23.80;94247.00;;;;7382574;19;20156;-74
2023/05/28 09:05:25;;;;;;;8.52;3.80;;;;;23.80;94259.00;;;;7381165;19;20159;-71
2023/05/28 09:07:53;;;;;;;7.88;3.80;;;;;24.90;94256.00;;;;7380001;19;20133;-70
2023/05/28 09:10:28;;;;;;;9.88;3.88;;;;;25.30;94242.00;;;;7378466;19;20203;-72
2023/05/28 09:13:04;;;;;;;9.48;3.60;;;22.20;99.90;24.80;94249.00;;;;7382820;19;20150;-71
2023/05/28 09:15:35;;;;;;;8.25;3.72;;;22.30;99.90;25.20;94258.00;;;;7387763;19;20139;-71
2023/05/28 09:18:09;;;;;;;9.68;4.10;;;22.50;99.90;24.60;94248.00;;;;7387597;19;20152;-70
2023/05/28 09:20:37;;;;;;;10.30;3.78;;;;;24.80;94250.00;;;;7384713;19;20616;-71
2023/05/28 09:23:06;;;;;;;10.02;4.10;;;22.30;25.30;24.80;94237.00;;;;7384656;19;20136;-70
2023/05/28 09:25:41;;;;;;;9.40;4.18;;;22.50;19.20;24.80;94236.00;;;;7382387;19;20758;-71
2023/05/28 09:28:27;;;;;;;10.25;4.45;;;22.80;1.00;25.30;94243.00;;;;7387021;19;20148;-71
2023/05/28 09:31:05;;;;;;;10.50;4.53;;;23.20;1.00;25.60;94251.00;;;;7383723;19;20248;-70
2023/05/28 09:33:45;;;;;;;9.65;4.38;;;23.30;1.00;25.00;94244.00;;;;7381687;19;20156;-70
2023/05/28 09:36:17;;;;;;;9.20;4.07;;;23.20;1.00;25.00;94250.00;;;;7382477;19;20129;-70
2023/05/28 09:38:51;;;;;;;15.68;4.40;;;23.40;99.90;25.00;94231.00;;;;7385692;19;20120;-71
2023/05/28 09:41:33;;;;;;;9.43;4.38;;;23.60;99.90;25.50;94208.00;;;;7389686;19;20120;-70
2023/05/28 09:44:10;;;;;;;7.30;3.88;;;23.90;99.90;25.70;94225.00;;;;7387765;19;20180;-70
2023/05/28 09:46:47;;;;;;;8.00;3.90;;;24.20;99.90;25.40;94236.00;;;;7387977;19;20604;-70
2023/05/28 09:49:20;;;;;;;10.15;4.15;;;24.30;99.90;25.40;94233.00;;;;7386861;19;20141;-71
2023/05/28 09:51:59;;;;;;;13.60;3.92;;;24.30;99.90;25.70;94239.00;;;;7387654;19;20121;-71
2023/05/28 09:54:35;;;;;;;10.00;4.13;;;24.30;99.90;26.00;94224.00;;;;7387920;19;20153;-71
2023/05/28 09:57:11;;;;;;;10.30;4.35;;;24.10;99.90;26.00;94241.00;;;;7386213;19;20155;-71
2023/05/28 09:59:49;;;;;;;9.07;4.13;;;23.90;99.90;25.20;94238.00;;;;7389756;19;20486;-70
2023/05/28 10:03:03;;;;;;;10.90;4.60;;;24.00;99.90;25.30;94242.00;;;;7388067;19;23277;-70
2023/05/28 10:05:33;;;;;;;11.50;3.83;;;23.90;99.90;25.70;94237.00;;;;7387804;19;20246;-74
2023/05/28 10:08:15;;;;;;;9.55;4.10;;;24.00;99.90;26.40;94238.00;;;;7385378;19;20134;-71
2023/05/28 10:10:53;;;;;;;7.50;4.13;;;24.10;99.90;26.30;94243.00;;;;7387056;19;21065;-70
2023/05/28 10:13:31;;;;;;;9.68;4.13;;;24.10;1.00;26.20;94241.00;;;;7384197;19;20125;-71
2023/05/28 10:15:59;;;;;;;11.10;4.80;;;24.20;1.00;26.60;94251.00;;;;7388922;19;20133;-70
2023/05/28 10:18:27;;;;;;;7.45;3.63;;;;;26.60;94241.00;;;;7386663;19;20133;-70
2023/05/28 10:21:05;;;;;;;5.80;3.95;;;;;26.60;94247.00;;;;7385124;19;20137;-70
2023/05/28 10:23:34;;;;;;;7.15;3.88;;;;;26.90;94253.00;;;;7386254;19;20147;-70
2023/05/28 10:26:11;;;;;;;7.45;4.43;;;;;26.80;94245.00;;;;7386649;19;20168;-74
2023/05/28 10:28:45;;;;;;;8.38;4.25;;;24.50;31.30;26.90;94244.00;;;;7387313;19;20599;-70
2023/05/28 10:31:12;;;;;;;9.60;4.20;;;24.80;1.00;26.50;94253.00;;;;7385716;19;20179;-70
2023/05/28 10:33:46;;;;;;;10.07;4.68;;;24.80;1.00;26.50;94242.00;;;;7383095;19;20169;-70
2023/05/28 10:36:23;;;;;;;8.18;4.10;;;25.20;1.00;26.30;94235.00;;;;7385949;19;20149;-72
2023/05/28 10:38:59;;;;;;;15.38;5.28;;;25.10;1.00;26.10;94229.00;;;;7383565;19;20206;-71
2023/05/28 10:41:34;;;;;;;7.35;4.20;;;25.20;1.00;26.30;94235.00;;;;7386386;19;20623;-72
2023/05/28 10:44:08;;;;;;;9.85;4.20;;;25.00;1.00;26.20;94250.00;;;;7387804;19;20195;-71
2023/05/28 10:46:43;;;;;;;5.50;3.97;;;25.10;1.00;26.20;94253.00;;;;7385206;19;20140;-71
2023/05/28 10:49:19;;;;;;;7.75;4.38;;;25.50;1.00;27.00;94241.00;;;;7384332;19;20128;-71
2023/05/28 10:52:03;;;;;;;9.55;4.80;;;26.10;1.00;27.30;94232.00;;;;7385432;19;20145;-71
2023/05/28 10:54:41;;;;;;;8.38;4.43;;;;;26.90;94242.00;;;;7386352;19;20127;-71
2023/05/28 10:57:20;;;;;;;9.02;4.70;;;;;27.60;94241.00;;;;7386038;19;20128;-73
2023/05/28 11:00:09;;;;;;;7.90;4.50;;;;;27.70;94239.00;;;;7385694;19;20151;-71
2023/05/28 11:02:44;;;;;;;14.05;7.63;;;27.20;99.90;28.00;94213.00;;;;7385750;19;20160;-72
2023/05/28 11:05:32;;;;;;;12.05;5.00;;;27.30;50.80;28.30;94227.00;;;;7386038;19;20172;-72
2023/05/28 11:08:08;;;;;;;12.15;4.80;;;27.80;1.00;28.40;94228.00;;;;7380809;19;20483;-70
2023/05/28 11:10:48;;;;;;;9.70;4.78;;;27.70;1.00;28.70;94232.00;;;;7383532;19;20136;-71
2023/05/28 11:13:25;;;;;;;7.38;4.15;;;27.50;1.00;28.30;94216.00;;;;7384824;19;20136;-70
2023/05/28 11:16:13;;;;;;;12.18;4.28;;;27.50;1.00;28.20;94223.00;;;;7383415;19;20128;-71
2023/05/28 11:19:10;;;;;;;8.07;4.35;;;27.10;1.00;27.50;94235.00;;;;7383444;19;20148;-73
2023/05/28 11:21:57;;;;;;;8.93;4.70;;;27.00;1.00;27.80;94236.00;;;;7384085;19;20143;-71
2023/05/28 11:24:32;;;;;;;9.88;4.72;;;26.60;1.00;27.30;94232.00;;;;7383053;19;20144;-71
2023/05/28 11:27:00;;;;;;;13.20;7.53;;;26.70;1.00;27.40;94225.00;;;;7381143;19;20155;-71
2023/05/28 11:29:34;;;;;;;9.98;5.90;;;27.10;1.00;28.20;94223.00;;;;7383267;19;20135;-71
2023/05/28 11:32:08;;;;;;;7.07;4.20;;;27.50;1.00;28.20;94229.00;;;;7384332;19;20145;-73